sensor_id;sensor_type;location;lat;lon;timestamp;pressure;altitude;pressure_sealevel;temperature;humidity
59391;BME280;53405;57.012;40.984;2023-04-27T00:02:06;99056.88;;;12.58;92.64
59391;BME280;53405;57.012;40.984;2023-04-27T00:04:34;99055.25;;;12.63;92.38
59391;BME280;53405;57.012;40.984;2023-04-27T00:07:02;99059.38;;;12.53;92.42
59391;BME280;53405;57.012;40.984;2023-04-27T00:09:29;99066.28;;;12.47;92.79
59391;BME280;53405;57.012;40.984;2023-04-27T00:11:57;99068.56;;;12.43;92.74
59391;BME280;53405;57.012;40.984;2023-04-27T00:14:25;99077.44;;;12.56;92.51
59391;BME280;53405;57.012;40.984;2023-04-27T00:16:54;99052.50;;;12.45;92.14
59391;BME280;53405;57.012;40.984;2023-04-27T00:19:22;99076.28;;;12.45;92.28
59391;BME280;53405;57.012;40.984;2023-04-27T00:21:50;99080.91;;;12.50;92.19
59391;BME280;53405;57.012;40.984;2023-04-27T00:24:18;99075.81;;;12.55;91.63
59391;BME280;53405;57.012;40.984;2023-04-27T00:26:45;99086.66;;;12.40;92.99
59391;BME280;53405;57.012;40.984;2023-04-27T00:29:13;99089.34;;;12.33;93.04
59391;BME280;53405;57.012;40.984;2023-04-27T00:31:40;99083.22;;;12.39;93.11
59391;BME280;53405;57.012;40.984;2023-04-27T00:34:08;99098.28;;;12.32;92.16
59391;BME280;53405;57.012;40.984;2023-04-27T00:36:35;99094.88;;;12.18;93.65
59391;BME280;53405;57.012;40.984;2023-04-27T00:39:03;99087.19;;;12.17;94.09
59391;BME280;53405;57.012;40.984;2023-04-27T00:41:35;99087.63;;;12.45;91.50
59391;BME280;53405;57.012;40.984;2023-04-27T00:44:03;99091.44;;;12.18;92.80
59391;BME280;53405;57.012;40.984;2023-04-27T00:46:32;99097.81;;;12.03;93.81
59391;BME280;53405;57.012;40.984;2023-04-27T00:49:00;99094.44;;;12.28;92.70
59391;BME280;53405;57.012;40.984;2023-04-27T00:51:27;99094.75;;;12.45;90.95
59391;BME280;53405;57.012;40.984;2023-04-27T00:53:57;99091.06;;;12.14;92.66
59391;BME280;53405;57.012;40.984;2023-04-27T00:56:26;99094.97;;;12.43;90.86
59391;BME280;53405;57.012;40.984;2023-04-27T00:58:54;99104.19;;;12.27;91.34
59391;BME280;53405;57.012;40.984;2023-04-27T01:01:24;99101.75;;;12.26;92.29
59391;BME280;53405;57.012;40.984;2023-04-27T01:03:52;99106.00;;;12.34;92.33
59391;BME280;53405;57.012;40.984;2023-04-27T01:06:19;99106.06;;;12.20;92.31
59391;BME280;53405;57.012;40.984;2023-04-27T01:08:47;99112.53;;;12.24;92.44
59391;BME280;53405;57.012;40.984;2023-04-27T01:11:15;99110.34;;;12.53;90.31
59391;BME280;53405;57.012;40.984;2023-04-27T01:13:43;99109.84;;;12.38;91.37
59391;BME280;53405;57.012;40.984;2023-04-27T01:16:11;99111.34;;;12.20;92.16
59391;BME280;53405;57.012;40.984;2023-04-27T01:18:38;99111.28;;;12.34;91.76
59391;BME280;53405;57.012;40.984;2023-04-27T01:21:11;99115.31;;;12.36;91.63
59391;BME280;53405;57.012;40.984;2023-04-27T01:23:39;99125.69;;;12.31;92.10
59391;BME280;53405;57.012;40.984;2023-04-27T01:26:06;99119.59;;;12.31;91.87
59391;BME280;53405;57.012;40.984;2023-04-27T01:28:34;99112.72;;;12.23;92.83
59391;BME280;53405;57.012;40.984;2023-04-27T01:31:01;99122.94;;;12.06;93.42
59391;BME280;53405;57.012;40.984;2023-04-27T01:33:29;99102.31;;;11.76;94.98
59391;BME280;53405;57.012;40.984;2023-04-27T01:35:57;99115.25;;;11.91;94.40
59391;BME280;53405;57.012;40.984;2023-04-27T01:38:29;99123.59;;;11.95;95.21
59391;BME280;53405;57.012;40.984;2023-04-27T01:40:57;99127.22;;;12.07;94.09
59391;BME280;53405;57.012;40.984;2023-04-27T01:43:28;99126.41;;;12.00;94.17
59391;BME280;53405;57.012;40.984;2023-04-27T01:46:07;99126.84;;;11.83;95.70
59391;BME280;53405;57.012;40.984;2023-04-27T01:48:36;99132.09;;;11.90;95.36
59391;BME280;53405;57.012;40.984;2023-04-27T01:51:04;99135.97;;;11.81;96.32
59391;BME280;53405;57.012;40.984;2023-04-27T01:53:33;99130.72;;;11.94;95.00
59391;BME280;53405;57.012;40.984;2023-04-27T01:56:00;99140.63;;;12.05;94.70
59391;BME280;53405;57.012;40.984;2023-04-27T01:58:28;99140.44;;;11.87;95.01
59391;BME280;53405;57.012;40.984;2023-04-27T02:00:55;99146.38;;;11.69;97.23
59391;BME280;53405;57.012;40.984;2023-04-27T02:03:23;99147.34;;;11.74;97.21
59391;BME280;53405;57.012;40.984;2023-04-27T02:05:51;99124.47;;;11.68;96.84
59391;BME280;53405;57.012;40.984;2023-04-27T02:08:18;99156.91;;;11.75;96.97
59391;BME280;53405;57.012;40.984;2023-04-27T02:10:46;99154.84;;;11.78;97.18
59391;BME280;53405;57.012;40.984;2023-04-27T02:13:16;99160.34;;;11.83;97.06
59391;BME280;53405;57.012;40.984;2023-04-27T02:15:44;99141.88;;;11.83;95.55
59391;BME280;53405;57.012;40.984;2023-04-27T02:18:11;99147.91;;;12.10;94.30
59391;BME280;53405;57.012;40.984;2023-04-27T02:20:40;99175.00;;;12.37;93.27
59391;BME280;53405;57.012;40.984;2023-04-27T02:23:08;99163.06;;;12.28;93.59
59391;BME280;53405;57.012;40.984;2023-04-27T02:25:36;99169.44;;;12.07;94.16
59391;BME280;53405;57.012;40.984;2023-04-27T02:28:04;99173.25;;;12.18;93.50
59391;BME280;53405;57.012;40.984;2023-04-27T02:30:32;99181.59;;;12.15;94.65
59391;BME280;53405;57.012;40.984;2023-04-27T02:33:00;99186.13;;;11.94;94.96
59391;BME280;53405;57.012;40.984;2023-04-27T02:35:28;99184.06;;;11.89;95.45
59391;BME280;53405;57.012;40.984;2023-04-27T02:37:58;99181.66;;;11.68;97.58
59391;BME280;53405;57.012;40.984;2023-04-27T02:40:26;99188.34;;;11.90;96.94
59391;BME280;53405;57.012;40.984;2023-04-27T02:42:54;99187.47;;;12.17;94.72
59391;BME280;53405;57.012;40.984;2023-04-27T02:45:22;99201.91;;;12.07;94.46
59391;BME280;53405;57.012;40.984;2023-04-27T02:47:49;99196.25;;;11.90;96.21
59391;BME280;53405;57.012;40.984;2023-04-27T02:50:17;99205.16;;;12.03;95.47
59391;BME280;53405;57.012;40.984;2023-04-27T02:52:45;99204.75;;;12.06;95.28
59391;BME280;53405;57.012;40.984;2023-04-27T02:55:12;99212.69;;;11.99;95.76
59391;BME280;53405;57.012;40.984;2023-04-27T02:57:41;99209.66;;;11.96;95.41
59391;BME280;53405;57.012;40.984;2023-04-27T03:00:09;99217.75;;;12.07;94.88
59391;BME280;53405;57.012;40.984;2023-04-27T03:02:37;99225.25;;;12.17;94.85
59391;BME280;53405;57.012;40.984;2023-04-27T03:05:05;99234.38;;;12.15;94.54
59391;BME280;53405;57.012;40.984;2023-04-27T03:07:33;99231.97;;;12.06;94.93
59391;BME280;53405;57.012;40.984;2023-04-27T03:10:03;99232.78;;;12.00;95.14
59391;BME280;53405;57.012;40.984;2023-04-27T03:12:31;99241.28;;;12.09;95.45
59391;BME280;53405;57.012;40.984;2023-04-27T03:14:59;99213.94;;;11.97;95.11
59391;BME280;53405;57.012;40.984;2023-04-27T03:17:28;99246.34;;;12.10;95.11
59391;BME280;53405;57.012;40.984;2023-04-27T03:19:56;99254.84;;;12.39;93.12
59391;BME280;53405;57.012;40.984;2023-04-27T03:22:24;99241.22;;;12.42;92.85
59391;BME280;53405;57.012;40.984;2023-04-27T03:24:52;99251.19;;;12.34;92.50
59391;BME280;53405;57.012;40.984;2023-04-27T03:27:19;99229.50;;;12.18;93.26
59391;BME280;53405;57.012;40.984;2023-04-27T03:29:52;99257.63;;;12.51;91.41
59391;BME280;53405;57.012;40.984;2023-04-27T03:32:20;99256.44;;;12.40;92.01
59391;BME280;53405;57.012;40.984;2023-04-27T03:34:48;99260.53;;;12.36;92.29
59391;BME280;53405;57.012;40.984;2023-04-27T03:37:16;99261.72;;;12.40;93.09
59391;BME280;53405;57.012;40.984;2023-04-27T03:39:44;99255.88;;;12.25;92.56
59391;BME280;53405;57.012;40.984;2023-04-27T03:42:12;99250.56;;;12.38;90.93
59391;BME280;53405;57.012;40.984;2023-04-27T03:44:40;99265.00;;;12.42;91.52
59391;BME280;53405;57.012;40.984;2023-04-27T03:47:07;99262.34;;;12.42;92.78
59391;BME280;53405;57.012;40.984;2023-04-27T03:49:38;99267.22;;;12.32;92.16
59391;BME280;53405;57.012;40.984;2023-04-27T03:52:06;99275.88;;;12.59;91.41
59391;BME280;53405;57.012;40.984;2023-04-27T03:54:35;99263.91;;;12.63;89.54
59391;BME280;53405;57.012;40.984;2023-04-27T03:57:03;99280.44;;;12.91;88.50
59391;BME280;53405;57.012;40.984;2023-04-27T03:59:30;99272.41;;;12.65;89.92
59391;BME280;53405;57.012;40.984;2023-04-27T04:01:58;99258.91;;;12.35;91.33
59391;BME280;53405;57.012;40.984;2023-04-27T04:04:27;99289.50;;;12.63;90.56
59391;BME280;53405;57.012;40.984;2023-04-27T04:06:55;99288.09;;;12.54;90.19
59391;BME280;53405;57.012;40.984;2023-04-27T04:09:24;99282.22;;;12.45;90.67
59391;BME280;53405;57.012;40.984;2023-04-27T04:11:53;99288.13;;;12.40;91.81
59391;BME280;53405;57.012;40.984;2023-04-27T04:14:21;99262.75;;;12.39;89.83
59391;BME280;53405;57.012;40.984;2023-04-27T04:16:49;99301.09;;;12.55;90.74
59391;BME280;53405;57.012;40.984;2023-04-27T04:19:16;99309.00;;;12.62;90.46
59391;BME280;53405;57.012;40.984;2023-04-27T04:21:44;99310.78;;;12.75;89.68
59391;BME280;53405;57.012;40.984;2023-04-27T04:24:12;99308.94;;;12.75;88.62
59391;BME280;53405;57.012;40.984;2023-04-27T04:26:42;99314.50;;;12.60;90.30
59391;BME280;53405;57.012;40.984;2023-04-27T04:29:09;99316.31;;;12.53;90.43
59391;BME280;53405;57.012;40.984;2023-04-27T04:31:37;99309.44;;;12.52;90.83
59391;BME280;53405;57.012;40.984;2023-04-27T04:34:05;99318.75;;;12.68;90.27
59391;BME280;53405;57.012;40.984;2023-04-27T04:36:33;99321.19;;;12.63;89.84
59391;BME280;53405;57.012;40.984;2023-04-27T04:39:01;99335.94;;;12.91;88.05
59391;BME280;53405;57.012;40.984;2023-04-27T04:41:29;99291.59;;;12.41;89.47
59391;BME280;53405;57.012;40.984;2023-04-27T04:43:58;99337.22;;;12.68;90.19
59391;BME280;53405;57.012;40.984;2023-04-27T04:46:27;99339.47;;;12.71;89.54
59391;BME280;53405;57.012;40.984;2023-04-27T04:48:56;99342.50;;;12.75;89.70
59391;BME280;53405;57.012;40.984;2023-04-27T04:51:23;99342.38;;;13.08;88.08
59391;BME280;53405;57.012;40.984;2023-04-27T04:53:51;99347.34;;;12.84;88.72
59391;BME280;53405;57.012;40.984;2023-04-27T04:56:19;99355.03;;;12.99;88.08
59391;BME280;53405;57.012;40.984;2023-04-27T04:58:47;99355.63;;;13.01;88.12
59391;BME280;53405;57.012;40.984;2023-04-27T05:01:15;99351.00;;;12.77;88.66
59391;BME280;53405;57.012;40.984;2023-04-27T05:03:43;99353.09;;;12.61;89.83
59391;BME280;53405;57.012;40.984;2023-04-27T05:06:11;99356.88;;;12.92;88.17
59391;BME280;53405;57.012;40.984;2023-04-27T05:08:38;99362.63;;;12.76;89.50
59391;BME280;53405;57.012;40.984;2023-04-27T05:11:06;99354.84;;;12.88;88.21
59391;BME280;53405;57.012;40.984;2023-04-27T05:13:59;99371.47;;;13.01;88.29
59391;BME280;53405;57.012;40.984;2023-04-27T05:16:26;99364.03;;;12.85;88.70
59391;BME280;53405;57.012;40.984;2023-04-27T05:18:54;99371.47;;;13.01;88.00
59391;BME280;53405;57.012;40.984;2023-04-27T05:21:22;99380.25;;;12.89;89.22
59391;BME280;53405;57.012;40.984;2023-04-27T05:23:50;99369.44;;;12.97;89.00
59391;BME280;53405;57.012;40.984;2023-04-27T05:26:20;99369.28;;;12.92;88.58
59391;BME280;53405;57.012;40.984;2023-04-27T05:28:51;99383.91;;;12.88;89.48
59391;BME280;53405;57.012;40.984;2023-04-27T05:31:20;99370.94;;;12.79;89.03
59391;BME280;53405;57.012;40.984;2023-04-27T05:33:47;99390.38;;;13.12;87.61
59391;BME280;53405;57.012;40.984;2023-04-27T05:36:15;99384.91;;;13.00;88.60
59391;BME280;53405;57.012;40.984;2023-04-27T05:38:43;99401.06;;;13.37;86.54
59391;BME280;53405;57.012;40.984;2023-04-27T05:41:10;99397.50;;;13.57;85.03
59391;BME280;53405;57.012;40.984;2023-04-27T05:43:38;99405.53;;;13.36;86.28
59391;BME280;53405;57.012;40.984;2023-04-27T05:46:06;99386.38;;;13.41;85.48
59391;BME280;53405;57.012;40.984;2023-04-27T05:48:35;99408.59;;;13.40;85.93
59391;BME280;53405;57.012;40.984;2023-04-27T05:51:03;99423.59;;;13.46;85.55
59391;BME280;53405;57.012;40.984;2023-04-27T05:53:33;99400.94;;;13.64;84.44
59391;BME280;53405;57.012;40.984;2023-04-27T05:56:00;99413.00;;;13.53;85.07
59391;BME280;53405;57.012;40.984;2023-04-27T05:58:34;99405.50;;;13.43;85.27
59391;BME280;53405;57.012;40.984;2023-04-27T06:01:02;99414.09;;;13.39;85.32
59391;BME280;53405;57.012;40.984;2023-04-27T06:03:30;99413.09;;;13.26;86.02
59391;BME280;53405;57.012;40.984;2023-04-27T06:06:00;99421.81;;;13.40;85.76
59391;BME280;53405;57.012;40.984;2023-04-27T06:08:28;99415.84;;;13.45;85.79
59391;BME280;53405;57.012;40.984;2023-04-27T06:10:57;99418.13;;;13.41;85.72
59391;BME280;53405;57.012;40.984;2023-04-27T06:13:24;99424.13;;;13.62;84.78
59391;BME280;53405;57.012;40.984;2023-04-27T06:15:52;99406.34;;;13.30;84.61
59391;BME280;53405;57.012;40.984;2023-04-27T06:18:20;99432.28;;;13.92;83.26
59391;BME280;53405;57.012;40.984;2023-04-27T06:20:47;99419.06;;;13.92;81.35
59391;BME280;53405;57.012;40.984;2023-04-27T06:23:15;99437.50;;;13.73;83.00
59391;BME280;53405;57.012;40.984;2023-04-27T06:25:43;99446.94;;;13.95;82.28
59391;BME280;53405;57.012;40.984;2023-04-27T06:28:10;99445.53;;;14.24;79.56
59391;BME280;53405;57.012;40.984;2023-04-27T06:30:39;99455.00;;;13.74;81.41
59391;BME280;53405;57.012;40.984;2023-04-27T06:33:07;99446.13;;;13.62;82.80
59391;BME280;53405;57.012;40.984;2023-04-27T06:35:35;99446.97;;;13.56;82.67
59391;BME280;53405;57.012;40.984;2023-04-27T06:38:03;99445.25;;;13.75;82.72
59391;BME280;53405;57.012;40.984;2023-04-27T06:40:32;99453.81;;;13.70;83.26
59391;BME280;53405;57.012;40.984;2023-04-27T06:42:59;99456.91;;;13.99;81.75
59391;BME280;53405;57.012;40.984;2023-04-27T06:45:28;99441.31;;;13.84;82.49
59391;BME280;53405;57.012;40.984;2023-04-27T06:47:55;99472.66;;;13.87;82.29
59391;BME280;53405;57.012;40.984;2023-04-27T06:50:23;99471.13;;;14.05;81.72
59391;BME280;53405;57.012;40.984;2023-04-27T06:52:51;99463.94;;;14.12;81.99
59391;BME280;53405;57.012;40.984;2023-04-27T06:55:19;99470.66;;;13.83;83.47
59391;BME280;53405;57.012;40.984;2023-04-27T06:57:47;99468.06;;;14.01;81.96
59391;BME280;53405;57.012;40.984;2023-04-27T07:00:15;99479.19;;;14.17;81.13
59391;BME280;53405;57.012;40.984;2023-04-27T07:02:43;99473.22;;;14.53;79.49
59391;BME280;53405;57.012;40.984;2023-04-27T07:05:10;99487.66;;;14.57;78.49
59391;BME280;53405;57.012;40.984;2023-04-27T07:07:38;99487.50;;;14.27;79.55
59391;BME280;53405;57.012;40.984;2023-04-27T07:10:08;99485.44;;;14.29;80.53
59391;BME280;53405;57.012;40.984;2023-04-27T07:12:36;99490.66;;;14.36;80.30
59391;BME280;53405;57.012;40.984;2023-04-27T07:15:05;99480.44;;;14.39;77.58
59391;BME280;53405;57.012;40.984;2023-04-27T07:17:33;99490.78;;;14.16;78.73
59391;BME280;53405;57.012;40.984;2023-04-27T07:20:02;99491.38;;;14.24;78.81
59391;BME280;53405;57.012;40.984;2023-04-27T07:22:33;99481.91;;;14.67;76.15
59391;BME280;53405;57.012;40.984;2023-04-27T07:25:00;99493.41;;;14.79;76.92
59391;BME280;53405;57.012;40.984;2023-04-27T07:27:30;99498.66;;;14.61;77.01
59391;BME280;53405;57.012;40.984;2023-04-27T07:29:58;99502.31;;;14.85;76.84
59391;BME280;53405;57.012;40.984;2023-04-27T07:32:25;99509.97;;;15.00;74.49
59391;BME280;53405;57.012;40.984;2023-04-27T07:34:57;99507.25;;;14.81;74.24
59391;BME280;53405;57.012;40.984;2023-04-27T07:37:24;99503.56;;;14.57;75.56
59391;BME280;53405;57.012;40.984;2023-04-27T07:39:52;99519.59;;;14.69;76.12
59391;BME280;53405;57.012;40.984;2023-04-27T07:42:21;99521.16;;;15.02;75.13
59391;BME280;53405;57.012;40.984;2023-04-27T07:44:49;99523.44;;;14.73;77.08
59391;BME280;53405;57.012;40.984;2023-04-27T07:47:16;99524.09;;;14.69;75.54
59391;BME280;53405;57.012;40.984;2023-04-27T07:49:45;99522.63;;;14.98;75.81
59391;BME280;53405;57.012;40.984;2023-04-27T07:52:13;99514.75;;;15.10;72.54
59391;BME280;53405;57.012;40.984;2023-04-27T07:54:41;99525.75;;;15.32;70.34
59391;BME280;53405;57.012;40.984;2023-04-27T07:57:10;99525.25;;;15.23;70.35
59391;BME280;53405;57.012;40.984;2023-04-27T07:59:38;99522.53;;;15.48;70.57
59391;BME280;53405;57.012;40.984;2023-04-27T08:02:06;99526.34;;;15.34;70.92
59391;BME280;53405;57.012;40.984;2023-04-27T08:04:44;99529.66;;;15.66;69.69
59391;BME280;53405;57.012;40.984;2023-04-27T08:07:16;99519.84;;;15.67;70.50
59391;BME280;53405;57.012;40.984;2023-04-27T08:09:44;99519.03;;;15.48;71.23
59391;BME280;53405;57.012;40.984;2023-04-27T08:12:12;99522.50;;;15.67;68.78
59391;BME280;53405;57.012;40.984;2023-04-27T08:14:40;99527.97;;;15.53;68.14
59391;BME280;53405;57.012;40.984;2023-04-27T08:17:07;99519.22;;;15.34;67.82
59391;BME280;53405;57.012;40.984;2023-04-27T08:19:35;99520.59;;;15.74;68.38
59391;BME280;53405;57.012;40.984;2023-04-27T08:22:03;99526.13;;;16.64;65.92
59391;BME280;53405;57.012;40.984;2023-04-27T08:24:30;99539.34;;;17.06;64.12
59391;BME280;53405;57.012;40.984;2023-04-27T08:26:59;99531.13;;;17.83;60.29
59391;BME280;53405;57.012;40.984;2023-04-27T08:29:27;99544.53;;;17.48;59.52
59391;BME280;53405;57.012;40.984;2023-04-27T08:31:58;99530.69;;;17.22;61.32
59391;BME280;53405;57.012;40.984;2023-04-27T08:34:27;99542.59;;;16.96;63.27
59391;BME280;53405;57.012;40.984;2023-04-27T08:36:55;99543.41;;;17.08;61.43
59391;BME280;53405;57.012;40.984;2023-04-27T08:39:23;99556.09;;;16.94;60.97
59391;BME280;53405;57.012;40.984;2023-04-27T08:41:51;99544.31;;;17.38;59.18
59391;BME280;53405;57.012;40.984;2023-04-27T08:44:19;99554.44;;;17.88;57.53
59391;BME280;53405;57.012;40.984;2023-04-27T08:46:47;99541.25;;;18.10;59.22
59391;BME280;53405;57.012;40.984;2023-04-27T08:49:14;99553.72;;;19.01;54.77
59391;BME280;53405;57.012;40.984;2023-04-27T08:51:43;99554.75;;;18.20;55.97
59391;BME280;53405;57.012;40.984;2023-04-27T08:54:10;99547.25;;;17.88;57.78
59391;BME280;53405;57.012;40.984;2023-04-27T08:56:38;99550.56;;;17.31;59.42
59391;BME280;53405;57.012;40.984;2023-04-27T08:59:13;99547.66;;;17.45;55.38
59391;BME280;53405;57.012;40.984;2023-04-27T09:01:45;99560.13;;;17.56;53.70
59391;BME280;53405;57.012;40.984;2023-04-27T09:04:15;99562.69;;;18.03;54.59
59391;BME280;53405;57.012;40.984;2023-04-27T09:06:44;99556.88;;;18.98;53.57
59391;BME280;53405;57.012;40.984;2023-04-27T09:09:21;99566.97;;;19.52;51.32
59391;BME280;53405;57.012;40.984;2023-04-27T09:11:49;99561.94;;;19.17;52.18
59391;BME280;53405;57.012;40.984;2023-04-27T09:14:20;99561.25;;;18.87;52.79
59391;BME280;53405;57.012;40.984;2023-04-27T09:16:55;99562.03;;;18.71;53.39
59391;BME280;53405;57.012;40.984;2023-04-27T09:19:27;99560.19;;;19.05;52.28
59391;BME280;53405;57.012;40.984;2023-04-27T09:22:08;99564.00;;;19.71;51.47
59391;BME280;53405;57.012;40.984;2023-04-27T09:24:37;99559.38;;;20.32;49.48
59391;BME280;53405;57.012;40.984;2023-04-27T09:27:06;99561.34;;;20.74;47.37
59391;BME280;53405;57.012;40.984;2023-04-27T09:29:35;99575.50;;;21.07;46.71
59391;BME280;53405;57.012;40.984;2023-04-27T09:32:18;99568.47;;;20.96;46.26
59391;BME280;53405;57.012;40.984;2023-04-27T09:34:47;99573.59;;;21.40;45.02
59391;BME280;53405;57.012;40.984;2023-04-27T09:37:15;99572.34;;;21.16;46.33
59391;BME280;53405;57.012;40.984;2023-04-27T09:39:44;99548.97;;;21.43;44.34
59391;BME280;53405;57.012;40.984;2023-04-27T09:42:12;99581.31;;;21.90;43.18
59391;BME280;53405;57.012;40.984;2023-04-27T09:44:39;99577.75;;;20.83;46.76
59391;BME280;53405;57.012;40.984;2023-04-27T09:47:08;99577.78;;;21.26;46.05
59391;BME280;53405;57.012;40.984;2023-04-27T09:49:37;99580.31;;;21.48;46.45
59391;BME280;53405;57.012;40.984;2023-04-27T09:52:05;99575.38;;;21.72;46.23
59391;BME280;53405;57.012;40.984;2023-04-27T09:54:33;99580.13;;;22.38;43.93
59391;BME280;53405;57.012;40.984;2023-04-27T09:57:07;99579.88;;;22.35;43.88
59391;BME280;53405;57.012;40.984;2023-04-27T10:02:15;99589.31;;;21.32;45.83
59391;BME280;53405;57.012;40.984;2023-04-27T10:07:52;99597.34;;;20.07;46.92
59391;BME280;53405;57.012;40.984;2023-04-27T10:10:20;99586.78;;;19.56;48.80
59391;BME280;53405;57.012;40.984;2023-04-27T10:13:00;99594.13;;;20.60;47.38
59391;BME280;53405;57.012;40.984;2023-04-27T10:15:29;99596.69;;;21.52;44.95
59391;BME280;53405;57.012;40.984;2023-04-27T10:18:03;99590.13;;;21.27;43.63
59391;BME280;53405;57.012;40.984;2023-04-27T10:20:35;99592.09;;;21.04;46.31
59391;BME280;53405;57.012;40.984;2023-04-27T10:23:03;99583.44;;;21.35;46.94
59391;BME280;53405;57.012;40.984;2023-04-27T10:25:38;99578.06;;;20.60;45.45
59391;BME280;53405;57.012;40.984;2023-04-27T10:28:07;99592.97;;;20.50;46.45
59391;BME280;53405;57.012;40.984;2023-04-27T10:30:38;99583.81;;;21.06;44.87
59391;BME280;53405;57.012;40.984;2023-04-27T10:33:10;99563.75;;;20.44;45.91
59391;BME280;53405;57.012;40.984;2023-04-27T10:35:54;99592.66;;;20.74;47.93
59391;BME280;53405;57.012;40.984;2023-04-27T10:38:28;99563.84;;;21.67;45.24
59391;BME280;53405;57.012;40.984;2023-04-27T10:41:03;99586.22;;;22.03;41.96
59391;BME280;53405;57.012;40.984;2023-04-27T10:43:34;99583.56;;;21.12;45.70
59391;BME280;53405;57.012;40.984;2023-04-27T10:46:11;99582.34;;;21.78;44.03
59391;BME280;53405;57.012;40.984;2023-04-27T10:48:42;99593.94;;;21.89;44.26
59391;BME280;53405;57.012;40.984;2023-04-27T10:51:15;99583.78;;;21.43;45.57
59391;BME280;53405;57.012;40.984;2023-04-27T10:53:44;99587.97;;;21.29;44.28
59391;BME280;53405;57.012;40.984;2023-04-27T10:56:11;99598.69;;;21.72;43.21
59391;BME280;53405;57.012;40.984;2023-04-27T10:58:39;99590.03;;;21.17;45.29
59391;BME280;53405;57.012;40.984;2023-04-27T11:01:24;99594.53;;;20.73;44.73
59391;BME280;53405;57.012;40.984;2023-04-27T11:03:56;99575.16;;;21.36;44.11
59391;BME280;53405;57.012;40.984;2023-04-27T11:06:24;99595.28;;;21.92;44.42
59391;BME280;53405;57.012;40.984;2023-04-27T11:08:52;99602.13;;;21.62;41.39
59391;BME280;53405;57.012;40.984;2023-04-27T11:11:20;99590.63;;;20.86;44.78
59391;BME280;53405;57.012;40.984;2023-04-27T11:13:50;99605.88;;;21.66;41.43
59391;BME280;53405;57.012;40.984;2023-04-27T11:16:21;99593.19;;;22.14;41.05
59391;BME280;53405;57.012;40.984;2023-04-27T11:18:49;99600.78;;;23.46;38.72
59391;BME280;53405;57.012;40.984;2023-04-27T11:21:18;99609.03;;;23.86;38.00
59391;BME280;53405;57.012;40.984;2023-04-27T11:23:47;99616.09;;;24.21;35.60
59391;BME280;53405;57.012;40.984;2023-04-27T11:26:17;99614.28;;;23.10;38.31
59391;BME280;53405;57.012;40.984;2023-04-27T11:28:57;99616.09;;;22.37;39.75
59391;BME280;53405;57.012;40.984;2023-04-27T11:31:41;99615.06;;;23.05;38.72
59391;BME280;53405;57.012;40.984;2023-04-27T11:34:15;99623.81;;;23.68;37.58
59391;BME280;53405;57.012;40.984;2023-04-27T11:36:43;99590.31;;;23.44;36.43
59391;BME280;53405;57.012;40.984;2023-04-27T11:39:15;99616.38;;;22.46;38.26
59391;BME280;53405;57.012;40.984;2023-04-27T11:41:48;99620.97;;;22.71;37.79
59391;BME280;53405;57.012;40.984;2023-04-27T11:44:15;99613.72;;;23.08;38.66
59391;BME280;53405;57.012;40.984;2023-04-27T11:46:44;99604.00;;;23.53;37.17
59391;BME280;53405;57.012;40.984;2023-04-27T11:49:13;99598.09;;;23.41;37.39
59391;BME280;53405;57.012;40.984;2023-04-27T11:51:41;99602.47;;;22.96;38.47
59391;BME280;53405;57.012;40.984;2023-04-27T11:54:11;99604.00;;;23.53;38.16
59391;BME280;53405;57.012;40.984;2023-04-27T11:56:40;99602.25;;;23.98;35.62
59391;BME280;53405;57.012;40.984;2023-04-27T11:59:21;99606.88;;;24.32;35.03
59391;BME280;53405;57.012;40.984;2023-04-27T12:01:53;99596.22;;;24.62;34.24
59391;BME280;53405;57.012;40.984;2023-04-27T12:04:23;99601.13;;;23.99;35.95
59391;BME280;53405;57.012;40.984;2023-04-27T12:06:51;99607.28;;;24.15;35.41
59391;BME280;53405;57.012;40.984;2023-04-27T12:09:19;99597.75;;;24.33;36.03
59391;BME280;53405;57.012;40.984;2023-04-27T12:11:47;99581.84;;;24.37;37.07
59391;BME280;53405;57.012;40.984;2023-04-27T12:14:15;99598.16;;;25.20;34.08
59391;BME280;53405;57.012;40.984;2023-04-27T12:16:43;99562.78;;;25.02;35.32
59391;BME280;53405;57.012;40.984;2023-04-27T12:19:10;99592.59;;;25.84;33.09
59391;BME280;53405;57.012;40.984;2023-04-27T12:21:38;99589.47;;;26.01;32.33
59391;BME280;53405;57.012;40.984;2023-04-27T12:24:06;99589.31;;;25.68;32.12
59391;BME280;53405;57.012;40.984;2023-04-27T12:26:33;99581.09;;;26.02;31.18
59391;BME280;53405;57.012;40.984;2023-04-27T12:29:01;99597.00;;;25.79;30.95
59391;BME280;53405;57.012;40.984;2023-04-27T12:31:31;99599.44;;;25.76;30.72
59391;BME280;53405;57.012;40.984;2023-04-27T12:33:58;99601.75;;;25.88;29.53
59391;BME280;53405;57.012;40.984;2023-04-27T12:36:26;99589.28;;;24.90;30.90
59391;BME280;53405;57.012;40.984;2023-04-27T12:38:56;99590.59;;;24.93;33.81
59391;BME280;53405;57.012;40.984;2023-04-27T12:41:24;99600.88;;;24.85;33.96
59391;BME280;53405;57.012;40.984;2023-04-27T12:43:52;99610.03;;;24.45;36.58
59391;BME280;53405;57.012;40.984;2023-04-27T12:46:20;99594.91;;;24.14;35.44
59391;BME280;53405;57.012;40.984;2023-04-27T12:48:48;99601.75;;;23.86;34.06
59391;BME280;53405;57.012;40.984;2023-04-27T12:51:15;99597.50;;;23.70;33.67
59391;BME280;53405;57.012;40.984;2023-04-27T12:53:43;99599.59;;;23.83;32.40
59391;BME280;53405;57.012;40.984;2023-04-27T12:56:10;99594.84;;;23.54;32.29
59391;BME280;53405;57.012;40.984;2023-04-27T12:58:38;99604.97;;;23.93;32.46
59391;BME280;53405;57.012;40.984;2023-04-27T13:01:07;99601.34;;;23.43;33.39
59391;BME280;53405;57.012;40.984;2023-04-27T13:03:41;99613.19;;;22.96;33.94
59391;BME280;53405;57.012;40.984;2023-04-27T13:06:09;99606.19;;;22.53;34.44